Fuerteventura > ESTACION METEOROLÓGICA Costa Calma - Pájara

DATOS ACTUALES Online

Ultima actulizacion 33 minutos

22.2 ºC

Temperatura

87

Humedad (%)

1011.21

Presión (mb)

4.9

Precipitación (mm)

27.6 O

Viento (Km/h)

DATOS DIARIOS

Temperatura últimas 24 horas (ºC)

Humedad últimas 24 horas (%)

Presión atmosférica últimas 24 horas (mb)

Precipitaciones últimas 23 horas (mm)

Viento últimas 24 horas (Km/h)

Hora Temperatura (°C) ºC Precipitación (mm) mm Presión (mb) mb Humedad (%) % Viento (Km/h) km/h
25 - 00:00 23.4 0 1013 77 9.7 N
25 - 01:00 22.5 0 1013 82 7.9 N
25 - 02:00 22.6 0 1013 83 11.8 NW
25 - 03:00 22.8 0 1012 82 13.4 N
25 - 04:00 22.7 0 1012 81 20.9 N
25 - 05:00 22.7 0 1012 80 15 N
25 - 06:00 22.6 0 1012 82 9.8 NW
25 - 07:00 22.6 0.1 1012 82 12.9 N
25 - 08:00 22.1 0.3 1013 89 5.5 NW
25 - 09:00 22.6 0.5 1013 88 4.1 N
25 - 10:00 23.7 0.6 1014 77 23 NO
25 - 11:00 23.9 1.2 1013 79 20 NO
25 - 12:00 25 1.5 1013 70 26.3 NO
25 - 13:00 25.5 1.5 1012 71 25.5 NW
25 - 14:00 25 1.5 1012 76 39.3 N
25 - 15:00 24.6 1.6 1011 80 28.7 N
25 - 16:00 25 1.7 1012 78 10.9 SO
25 - 17:00 24 2.4 1012 79 27.9 NO
25 - 18:00 23.2 3.3 1012 85 25.6 NO
25 - 19:00 22.1 3.8 1012 88 25.8 NO
25 - 20:00 21.5 4.8 1012 90 27.3 NO
25 - 21:00 21.5 4.9 1011 89 22.6 NO
25 - 22:00 22 4.9 1011 89 26.1 NO
25 - 23:00 22.2 4.9 1011 87 27.6 O
26 - 00:00
Apalmet utiliza cookies propias y de terceros para mejorar la usabilidad y la experiencia web. Política de cookies.